createdAt,value
2022-10-01T00:02:07.892Z,7.80
2022-10-01T00:04:37.768Z,7.45
2022-10-01T00:07:09.931Z,8.27
2022-10-01T00:10:14.854Z,7.72
2022-10-01T00:13:02.991Z,7.32
2022-10-01T00:15:31.281Z,7.32
2022-10-01T00:17:59.423Z,7.75
2022-10-01T00:20:27.845Z,7.97
2022-10-01T00:22:55.912Z,8.30
2022-10-01T00:25:25.782Z,8.50
2022-10-01T00:27:54.061Z,8.93
2022-10-01T00:30:23.773Z,8.43
2022-10-01T00:32:54.591Z,9.10
2022-10-01T00:35:23.364Z,9.07
2022-10-01T00:37:52.602Z,8.70
2022-10-01T00:40:22.146Z,9.57
2022-10-01T00:42:50.513Z,8.35
2022-10-01T00:45:19.053Z,8.48
2022-10-01T00:47:53.572Z,8.75
2022-10-01T00:50:26.813Z,7.93
2022-10-01T00:53:00.114Z,7.68
2022-10-01T00:55:31.833Z,7.43
2022-10-01T00:58:00.433Z,6.63
2022-10-01T01:00:28.635Z,6.68
2022-10-01T01:02:58.572Z,6.93
2022-10-01T01:05:27.073Z,5.47
2022-10-01T01:07:55.288Z,5.93
2022-10-01T01:10:30.261Z,5.20
2022-10-01T01:13:12.479Z,5.13
2022-10-01T01:15:46.640Z,5.47
2022-10-01T01:18:22.727Z,5.70
2022-10-01T01:21:13.370Z,5.80
2022-10-01T01:24:19.623Z,5.72
2022-10-01T01:26:59.543Z,6.10
2022-10-01T01:29:36.934Z,6.22
2022-10-01T01:32:14.844Z,6.40
2022-10-01T01:34:47.716Z,5.93
2022-10-01T01:37:19.293Z,5.70
2022-10-01T01:39:53.223Z,6.22
2022-10-01T01:42:25.583Z,6.38
2022-10-01T01:47:34.628Z,5.15
2022-10-01T01:50:05.121Z,5.32
2022-10-01T01:52:34.005Z,5.22
2022-10-01T01:55:08.976Z,4.93
2022-10-01T01:57:40.844Z,4.53
2022-10-01T02:00:12.965Z,4.30
2022-10-01T02:02:44.764Z,4.18
2022-10-01T02:05:16.335Z,4.18
2022-10-01T02:08:16.896Z,4.35
2022-10-01T02:11:03.612Z,4.47
2022-10-01T02:13:41.145Z,4.18
2022-10-01T02:16:19.403Z,4.03
2022-10-01T02:18:53.282Z,3.60
2022-10-01T02:21:27.688Z,4.28
2022-10-01T02:24:01.487Z,4.00
2022-10-01T02:26:32.028Z,3.45
2022-10-01T02:29:04.057Z,4.00
2022-10-01T02:31:37.154Z,4.03
2022-10-01T02:34:12.440Z,3.70
2022-10-01T02:36:42.983Z,4.53
2022-10-01T02:39:11.996Z,4.95
2022-10-01T02:41:41.640Z,4.55
2022-10-01T02:44:15.105Z,4.97
2022-10-01T02:46:50.535Z,5.93
2022-10-01T02:49:18.893Z,6.40
2022-10-01T02:51:55.384Z,5.55
2022-10-01T02:57:13.962Z,6.07
2022-10-01T02:59:41.983Z,6.80
2022-10-01T03:02:12.147Z,5.65
2022-10-01T03:04:40.360Z,5.65
2022-10-01T03:07:08.667Z,5.15
2022-10-01T03:09:39.802Z,7.03
2022-10-01T03:12:07.983Z,6.47
2022-10-01T03:14:35.996Z,5.72
2022-10-01T03:17:04.180Z,6.43
2022-10-01T03:19:33.946Z,6.75
2022-10-01T03:22:02.342Z,6.55
2022-10-01T03:24:30.356Z,7.18
2022-10-01T03:26:58.798Z,7.82
2022-10-01T03:29:27.379Z,6.45
2022-10-01T03:31:55.655Z,7.47
2022-10-01T03:34:23.896Z,7.18
2022-10-01T03:36:53.736Z,7.68
2022-10-01T03:39:21.968Z,7.65
2022-10-01T03:41:50.334Z,8.02
2022-10-01T03:44:18.518Z,7.50
2022-10-01T03:46:46.717Z,7.50
2022-10-01T03:49:14.847Z,6.78
2022-10-01T03:51:43.274Z,6.25
2022-10-01T03:54:13.076Z,5.47
2022-10-01T03:56:42.886Z,6.28
2022-10-01T03:59:11.486Z,6.03
2022-10-01T04:01:40.877Z,6.63
2022-10-01T04:04:09.045Z,7.30
2022-10-01T04:06:37.178Z,6.53
2022-10-01T04:09:05.701Z,6.10
2022-10-01T04:11:35.545Z,6.13
2022-10-01T04:14:03.731Z,6.72
2022-10-01T04:16:35.036Z,6.95
2022-10-01T04:19:03.535Z,7.70
2022-10-01T04:21:31.764Z,7.28
2022-10-01T04:24:00.497Z,7.20
2022-10-01T04:26:28.504Z,8.40
2022-10-01T04:28:58.286Z,6.93
2022-10-01T04:31:26.513Z,7.82
2022-10-01T04:33:56.095Z,6.85
2022-10-01T04:36:25.247Z,7.15
2022-10-01T04:38:57.904Z,7.85
2022-10-01T04:41:27.937Z,6.97
2022-10-01T04:43:59.566Z,6.53
2022-10-01T04:46:28.504Z,5.90
2022-10-01T04:48:56.526Z,6.88
2022-10-01T04:51:24.854Z,6.55
2022-10-01T04:53:53.044Z,6.90
2022-10-01T04:56:21.268Z,7.32
2022-10-01T04:58:49.457Z,6.18
2022-10-01T05:01:19.233Z,6.63
2022-10-01T05:03:48.000Z,7.78
2022-10-01T05:06:16.230Z,9.10
2022-10-01T05:08:44.387Z,8.27
2022-10-01T05:11:12.621Z,7.88
2022-10-01T05:13:40.928Z,8.35
2022-10-01T05:16:09.090Z,8.77
2022-10-01T05:18:40.778Z,8.85
2022-10-01T05:21:12.551Z,8.60
2022-10-01T05:23:40.648Z,9.50
2022-10-01T05:26:09.128Z,8.73
2022-10-01T05:28:37.294Z,8.20
2022-10-01T05:31:05.893Z,7.32
2022-10-01T05:33:34.552Z,7.30
2022-10-01T05:36:07.300Z,7.25
2022-10-01T05:38:37.501Z,6.93
2022-10-01T05:41:06.001Z,7.63
2022-10-01T05:43:34.311Z,5.97
2022-10-01T05:46:03.137Z,5.10
2022-10-01T05:48:34.971Z,7.07
2022-10-01T05:51:06.941Z,8.20
2022-10-01T05:53:37.779Z,8.95
2022-10-01T05:56:06.670Z,8.65
2022-10-01T05:58:35.282Z,8.35
2022-10-01T06:01:05.165Z,9.23
2022-10-01T06:03:33.691Z,7.85
2022-10-01T06:06:01.811Z,8.27
2022-10-01T06:08:31.738Z,8.73
2022-10-01T06:11:01.139Z,8.80
2022-10-01T06:13:29.549Z,7.18
2022-10-01T06:15:58.097Z,6.32
2022-10-01T06:18:27.570Z,6.05
2022-10-01T06:20:58.199Z,4.60
2022-10-01T06:23:26.521Z,5.47
2022-10-01T06:25:56.112Z,5.85
2022-10-01T06:28:24.298Z,6.13
2022-10-01T06:30:52.541Z,6.00
2022-10-01T06:33:21.209Z,6.70
2022-10-01T06:35:51.051Z,6.85
2022-10-01T06:38:20.978Z,7.22
2022-10-01T06:40:54.730Z,6.75
2022-10-01T06:43:23.155Z,6.53
2022-10-01T06:45:51.735Z,7.35
2022-10-01T06:48:20.946Z,6.90
2022-10-01T06:50:50.812Z,6.18
2022-10-01T06:53:19.267Z,6.18
2022-10-01T06:55:47.688Z,7.00
2022-10-01T06:58:18.819Z,5.85
2022-10-01T07:00:47.823Z,6.50
2022-10-01T07:03:18.522Z,5.70
2022-10-01T07:05:47.628Z,5.35
2022-10-01T07:08:15.680Z,6.22
2022-10-01T07:10:44.532Z,6.55
2022-10-01T07:13:14.389Z,6.90
2022-10-01T07:15:44.312Z,6.28
2022-10-01T07:18:13.101Z,5.80
2022-10-01T07:20:41.725Z,6.22
2022-10-01T07:23:12.351Z,6.20
2022-10-01T07:25:41.117Z,6.32
2022-10-01T07:28:16.790Z,6.63
2022-10-01T07:30:56.768Z,6.70
2022-10-01T07:33:24.798Z,6.43
2022-10-01T07:35:52.887Z,6.28
2022-10-01T07:38:20.857Z,6.57
2022-10-01T07:40:52.645Z,8.13
2022-10-01T07:43:33.363Z,6.70
2022-10-01T07:46:05.292Z,6.70
2022-10-01T07:48:33.479Z,5.82
2022-10-01T07:51:01.702Z,6.55
2022-10-01T07:53:29.687Z,6.25
2022-10-01T07:56:01.933Z,6.15
2022-10-01T07:58:29.882Z,6.53
2022-10-01T08:01:00.364Z,6.45
2022-10-01T08:03:30.155Z,6.03
2022-10-01T08:05:58.147Z,6.20
2022-10-01T08:08:26.049Z,6.10
2022-10-01T08:10:53.963Z,5.93
2022-10-01T08:13:25.051Z,5.65
2022-10-01T08:15:56.219Z,5.88
2022-10-01T08:18:24.632Z,6.30
2022-10-01T08:20:54.025Z,5.55
2022-10-01T08:23:22.359Z,6.30
2022-10-01T08:25:51.707Z,6.35
2022-10-01T08:28:20.169Z,6.78
2022-10-01T08:30:48.276Z,6.03
2022-10-01T08:33:16.367Z,6.03
2022-10-01T08:38:20.019Z,5.50
2022-10-01T08:40:50.840Z,5.90
2022-10-01T08:43:30.988Z,6.03
2022-10-01T08:46:02.461Z,5.88
2022-10-01T08:48:58.994Z,6.32
2022-10-01T08:51:33.627Z,6.47
2022-10-01T08:54:10.658Z,6.30
2022-10-01T08:56:44.673Z,6.28
2022-10-01T08:59:27.330Z,6.85
2022-10-01T09:01:56.382Z,6.95
2022-10-01T09:04:25.055Z,6.90
2022-10-01T09:07:02.608Z,6.05
2022-10-01T09:09:45.275Z,6.28
2022-10-01T09:12:25.232Z,7.47
2022-10-01T09:15:18.289Z,7.18
2022-10-01T09:18:07.339Z,6.80
2022-10-01T09:20:38.309Z,6.65
2022-10-01T09:23:34.017Z,7.28
2022-10-01T09:26:05.748Z,6.97
2022-10-01T09:28:35.617Z,7.50
2022-10-01T09:31:13.009Z,6.75
2022-10-01T09:33:55.991Z,6.95
2022-10-01T09:36:33.818Z,6.95
2022-10-01T09:39:12.365Z,7.03
2022-10-01T09:41:42.038Z,6.25
2022-10-01T09:44:18.904Z,6.72
2022-10-01T09:46:47.629Z,6.13
2022-10-01T09:49:26.217Z,5.95
2022-10-01T09:51:58.337Z,7.22
2022-10-01T09:54:33.113Z,7.03
2022-10-01T09:57:07.913Z,7.20
2022-10-01T09:59:41.842Z,7.10
2022-10-01T10:02:17.945Z,6.43
2022-10-01T10:04:46.283Z,6.68
2022-10-01T10:07:19.357Z,6.72
2022-10-01T10:09:47.486Z,6.50
2022-10-01T10:12:28.747Z,7.05
2022-10-01T10:14:59.294Z,6.60
2022-10-01T10:17:28.112Z,5.55
2022-10-01T10:19:56.124Z,5.63
2022-10-01T10:22:26.550Z,6.22
2022-10-01T10:27:29.401Z,4.95
2022-10-01T10:30:06.590Z,4.93
2022-10-01T10:32:35.230Z,4.60
2022-10-01T10:35:05.887Z,3.80
2022-10-01T10:37:37.286Z,4.13
2022-10-01T10:40:10.443Z,3.83
2022-10-01T10:42:48.221Z,2.60
2022-10-01T10:45:20.313Z,2.97
2022-10-01T10:47:51.695Z,2.88
2022-10-01T10:50:37.180Z,2.88
2022-10-01T10:53:23.208Z,2.90
2022-10-01T10:55:56.064Z,2.63
2022-10-01T10:58:28.106Z,2.28
2022-10-01T11:00:59.127Z,2.22
2022-10-01T11:03:29.403Z,1.92
2022-10-01T11:06:03.145Z,1.70
2022-10-01T11:08:31.892Z,1.60
2022-10-01T11:11:14.560Z,1.98
2022-10-01T11:14:02.190Z,1.65
2022-10-01T11:16:40.785Z,1.30
2022-10-01T11:19:29.373Z,0.90
2022-10-01T11:22:14.652Z,1.25
2022-10-01T11:25:03.861Z,1.92
2022-10-01T11:27:38.836Z,0.70
2022-10-01T11:30:15.538Z,1.10
2022-10-01T11:32:50.356Z,0.80
2022-10-01T11:35:29.233Z,0.95
2022-10-01T11:38:23.054Z,0.75
2022-10-01T11:40:54.930Z,0.90
2022-10-01T11:43:27.994Z,0.75
2022-10-01T11:46:01.403Z,0.82
2022-10-01T11:48:33.803Z,1.10
2022-10-01T11:51:06.068Z,0.82
2022-10-01T11:56:36.478Z,0.47
2022-10-01T11:59:08.269Z,0.70
2022-10-01T12:01:42.820Z,0.80
2022-10-01T12:04:29.138Z,0.93
2022-10-01T12:07:04.868Z,0.93
2022-10-01T12:09:44.928Z,0.82
2022-10-01T12:12:17.518Z,0.60
2022-10-01T12:14:51.598Z,0.47
2022-10-01T12:17:26.958Z,0.52
2022-10-01T12:19:57.618Z,0.80
2022-10-01T12:22:28.979Z,0.73
2022-10-01T12:24:57.316Z,0.60
2022-10-01T12:27:44.738Z,0.63
2022-10-01T12:30:16.848Z,0.50
2022-10-01T12:33:05.183Z,0.70
2022-10-01T12:35:47.658Z,0.47
2022-10-01T12:38:36.052Z,0.70
2022-10-01T12:41:14.797Z,0.65
2022-10-01T12:44:14.422Z,0.60
2022-10-01T12:46:50.141Z,0.88
2022-10-01T12:49:28.642Z,0.80
2022-10-01T12:52:04.387Z,0.88
2022-10-01T12:54:56.341Z,0.50
2022-10-01T12:57:43.252Z,0.40
2022-10-01T13:00:18.495Z,0.80
2022-10-01T13:03:14.527Z,0.35
2022-10-01T13:05:58.600Z,0.32
2022-10-01T13:08:50.381Z,0.30
2022-10-01T13:11:37.662Z,0.40
2022-10-01T13:14:08.929Z,0.35
2022-10-01T13:16:44.839Z,0.40
2022-10-01T13:19:21.866Z,0.47
2022-10-01T13:22:00.501Z,0.40
2022-10-01T13:24:33.200Z,0.40
2022-10-01T13:27:06.220Z,0.40
2022-10-01T13:29:46.789Z,0.30
2022-10-01T13:32:53.652Z,0.88
2022-10-01T13:35:36.628Z,0.43
2022-10-01T13:38:17.671Z,0.70
2022-10-01T13:40:57.149Z,0.43
2022-10-01T13:43:25.610Z,0.45
2022-10-01T13:45:55.481Z,0.38
2022-10-01T13:48:26.568Z,0.65
2022-10-01T13:50:58.854Z,0.63
2022-10-01T13:53:30.091Z,0.85
2022-10-01T13:55:59.940Z,0.60
2022-10-01T13:58:39.905Z,0.30
2022-10-01T14:01:29.232Z,0.40
2022-10-01T14:04:07.864Z,0.60
2022-10-01T14:06:43.914Z,0.30
2022-10-01T14:09:19.023Z,0.73
2022-10-01T14:12:10.141Z,1.42
2022-10-01T14:14:59.438Z,0.73
2022-10-01T14:17:29.958Z,0.40
2022-10-01T14:19:58.694Z,0.63
2022-10-01T14:22:54.171Z,0.40
2022-10-01T14:25:32.915Z,0.73
2022-10-01T14:28:24.916Z,0.60
2022-10-01T14:30:59.428Z,0.73
2022-10-01T14:33:47.069Z,0.60
2022-10-01T14:36:17.892Z,0.60
2022-10-01T14:38:46.035Z,0.40
2022-10-01T14:41:24.746Z,0.32
2022-10-01T14:43:53.412Z,0.80
2022-10-01T14:46:21.437Z,0.40
2022-10-01T14:48:59.607Z,0.50
2022-10-01T14:51:30.123Z,0.52
2022-10-01T14:54:00.406Z,0.40
2022-10-01T14:56:30.688Z,0.40
2022-10-01T14:59:03.161Z,0.40
2022-10-01T15:01:31.441Z,0.38
2022-10-01T15:04:00.281Z,0.50
2022-10-01T15:06:30.305Z,0.52
2022-10-01T15:09:11.110Z,0.73
2022-10-01T15:11:44.681Z,0.50
2022-10-01T15:14:18.482Z,0.63
2022-10-01T15:16:47.012Z,0.40
2022-10-01T15:19:17.510Z,0.43
2022-10-01T15:24:29.276Z,0.80
2022-10-01T15:26:59.399Z,0.60
2022-10-01T15:29:27.877Z,0.50
2022-10-01T15:31:58.175Z,0.35
2022-10-01T15:34:28.024Z,0.30
2022-10-01T15:36:57.042Z,0.70
2022-10-01T15:39:44.117Z,0.20
2022-10-01T15:42:25.979Z,0.30
2022-10-01T15:45:22.241Z,0.30
2022-10-01T15:50:27.301Z,0.30
2022-10-01T15:53:03.800Z,0.20
2022-10-01T15:58:14.521Z,0.40
2022-10-01T16:00:58.981Z,0.30
2022-10-01T16:03:31.503Z,0.50
2022-10-01T16:06:02.294Z,0.40
2022-10-01T16:08:35.916Z,0.40
2022-10-01T16:11:19.303Z,0.90
2022-10-01T16:13:50.911Z,0.68
2022-10-01T16:16:28.264Z,0.95
2022-10-01T16:19:00.115Z,0.50
2022-10-01T16:21:28.627Z,0.30
2022-10-01T16:23:57.191Z,0.70
2022-10-01T16:26:38.416Z,0.43
2022-10-01T16:29:25.008Z,0.77
2022-10-01T16:31:53.802Z,0.83
2022-10-01T16:34:22.095Z,0.95
2022-10-01T16:36:50.504Z,1.38
2022-10-01T16:39:18.472Z,1.38
2022-10-01T16:42:06.183Z,1.70
2022-10-01T16:44:40.038Z,1.48
2022-10-01T16:47:10.386Z,2.03
2022-10-01T16:49:38.543Z,2.20
2022-10-01T16:52:06.939Z,1.83
2022-10-01T16:54:35.399Z,2.50
2022-10-01T16:57:04.769Z,2.10
2022-10-01T16:59:34.011Z,1.90
2022-10-01T17:02:03.755Z,1.58
2022-10-01T17:04:34.092Z,2.17
2022-10-01T17:07:02.912Z,1.80
2022-10-01T17:09:30.875Z,2.00
2022-10-01T17:11:59.113Z,1.17
2022-10-01T17:14:28.102Z,1.23
2022-10-01T17:16:56.343Z,1.35
2022-10-01T17:19:27.123Z,1.50
2022-10-01T17:21:56.152Z,1.00
2022-10-01T17:24:40.733Z,1.60
2022-10-01T17:27:08.938Z,1.73
2022-10-01T17:29:37.465Z,1.13
2022-10-01T17:32:05.721Z,1.13
2022-10-01T17:34:36.396Z,1.65
2022-10-01T17:37:04.736Z,1.35
2022-10-01T17:39:34.766Z,1.65
2022-10-01T17:42:03.106Z,1.30
2022-10-01T17:44:31.211Z,1.20
2022-10-01T17:46:59.170Z,1.40
2022-10-01T17:49:27.098Z,1.65
2022-10-01T17:51:56.499Z,1.13
2022-10-01T17:54:24.600Z,1.45
2022-10-01T17:56:53.639Z,1.30
2022-10-01T17:59:21.597Z,1.33
2022-10-01T18:01:55.624Z,1.25
2022-10-01T18:04:26.021Z,1.73
2022-10-01T18:06:59.539Z,2.00
2022-10-01T18:09:27.609Z,2.13
2022-10-01T18:11:55.356Z,2.90
2022-10-01T18:14:24.120Z,2.05
2022-10-01T18:16:51.885Z,1.92
2022-10-01T18:22:14.310Z,2.10
2022-10-01T18:24:42.571Z,2.58
2022-10-01T18:27:11.075Z,2.80
2022-10-01T18:29:48.287Z,2.85
2022-10-01T18:32:18.227Z,2.67
2022-10-01T18:34:52.393Z,2.67
2022-10-01T18:37:29.644Z,2.88
2022-10-01T18:40:02.354Z,2.28
2022-10-01T18:42:39.456Z,2.63
2022-10-01T18:45:31.891Z,1.80
2022-10-01T18:48:14.135Z,2.25
2022-10-01T18:50:48.975Z,2.08
2022-10-01T18:53:38.277Z,1.50
2022-10-01T18:56:30.347Z,1.85
2022-10-01T18:59:27.544Z,2.55
2022-10-01T19:02:23.790Z,2.30
2022-10-01T19:05:10.801Z,2.20
2022-10-01T19:07:49.709Z,2.20
2022-10-01T19:10:29.608Z,2.05
2022-10-01T19:13:04.904Z,1.70
2022-10-01T19:15:47.724Z,2.45
2022-10-01T19:18:58.683Z,1.90
2022-10-01T19:21:33.481Z,1.98
2022-10-01T19:24:25.944Z,1.92
2022-10-01T19:27:03.043Z,2.08
2022-10-01T19:29:51.822Z,1.80
2022-10-01T19:32:23.359Z,1.95
2022-10-01T19:34:57.028Z,3.08
2022-10-01T19:37:33.506Z,1.83
2022-10-01T19:40:07.214Z,2.38
2022-10-01T19:42:49.206Z,1.95
2022-10-01T19:45:24.441Z,2.35
2022-10-01T19:48:02.515Z,2.47
2022-10-01T19:50:34.631Z,2.22
2022-10-01T19:53:04.261Z,2.65
2022-10-01T19:55:38.785Z,2.13
2022-10-01T19:58:17.986Z,2.35
2022-10-01T20:00:57.445Z,3.22
2022-10-01T20:03:42.230Z,2.92
2022-10-01T20:06:38.777Z,2.75
2022-10-01T20:09:16.144Z,2.58
2022-10-01T20:11:50.778Z,2.05
2022-10-01T20:14:57.544Z,2.08
2022-10-01T20:17:31.364Z,2.17
2022-10-01T20:20:07.319Z,1.88
2022-10-01T20:22:43.024Z,2.00
2022-10-01T20:25:24.152Z,2.47
2022-10-01T20:28:03.743Z,1.95
2022-10-01T20:30:38.923Z,1.92
2022-10-01T20:33:16.671Z,2.88
2022-10-01T20:35:55.191Z,2.33
2022-10-01T20:38:29.416Z,2.33
2022-10-01T20:40:58.715Z,2.03
2022-10-01T20:43:37.208Z,2.03
2022-10-01T20:46:14.856Z,2.17
2022-10-01T20:48:45.448Z,1.95
2022-10-01T20:51:17.553Z,2.28
2022-10-01T20:53:50.652Z,2.30
2022-10-01T20:56:24.029Z,2.13
2022-10-01T20:58:57.238Z,2.58
2022-10-01T21:01:30.353Z,2.00
2022-10-01T21:04:03.856Z,2.75
2022-10-01T21:06:37.531Z,2.00
2022-10-01T21:09:14.884Z,2.28
2022-10-01T21:11:47.917Z,2.85
2022-10-01T21:14:21.167Z,2.10
2022-10-01T21:17:19.084Z,2.08
2022-10-01T21:20:25.445Z,6.32
2022-10-01T21:23:18.382Z,2.97
2022-10-01T21:25:58.635Z,3.03
2022-10-01T21:28:42.793Z,3.25
2022-10-01T21:31:32.983Z,2.58
2022-10-01T21:34:09.400Z,2.78
2022-10-01T21:36:52.004Z,2.05
2022-10-01T21:39:30.422Z,2.17
2022-10-01T21:42:08.613Z,2.67
2022-10-01T21:44:52.053Z,2.40
2022-10-01T21:47:30.092Z,2.42
2022-10-01T21:50:11.801Z,2.22
2022-10-01T21:52:46.649Z,2.03
2022-10-01T21:55:35.522Z,2.35
2022-10-01T21:58:15.794Z,2.10
2022-10-01T22:00:52.852Z,1.80
2022-10-01T22:03:34.774Z,2.03
2022-10-01T22:06:10.051Z,1.85
2022-10-01T22:08:53.275Z,1.73
2022-10-01T22:11:23.686Z,2.42
2022-10-01T22:13:56.345Z,1.80
2022-10-01T22:16:27.071Z,1.70
2022-10-01T22:19:00.035Z,1.75
2022-10-01T22:21:35.634Z,1.70
2022-10-01T22:24:08.046Z,1.80
2022-10-01T22:26:40.535Z,1.60
2022-10-01T22:29:14.477Z,1.48
2022-10-01T22:31:43.898Z,1.67
2022-10-01T22:34:15.139Z,1.98
2022-10-01T22:36:49.507Z,1.60
2022-10-01T22:39:22.005Z,1.63
2022-10-01T22:41:53.375Z,1.48
2022-10-01T22:44:22.494Z,1.70
2022-10-01T22:47:21.295Z,1.50
2022-10-01T22:50:03.106Z,1.60
2022-10-01T22:52:39.725Z,2.08
2022-10-01T22:55:24.918Z,1.60
2022-10-01T22:58:06.724Z,1.95
2022-10-01T23:00:41.290Z,1.85
2022-10-01T23:03:16.357Z,1.50
2022-10-01T23:05:58.134Z,1.73
2022-10-01T23:08:37.038Z,2.30
2022-10-01T23:11:15.846Z,1.60
2022-10-01T23:13:51.705Z,1.75
2022-10-01T23:16:28.256Z,1.88
2022-10-01T23:21:37.232Z,1.20
2022-10-01T23:24:19.385Z,1.53
2022-10-01T23:26:58.333Z,1.60
2022-10-01T23:29:49.240Z,1.50
2022-10-01T23:32:28.959Z,2.15
2022-10-01T23:35:03.921Z,1.63
2022-10-01T23:38:17.800Z,1.70
2022-10-01T23:40:51.919Z,1.65
2022-10-01T23:43:26.120Z,1.75
2022-10-01T23:46:00.367Z,1.92
2022-10-01T23:48:34.110Z,1.77
2022-10-01T23:51:07.138Z,2.08
2022-10-01T23:53:42.879Z,1.92
2022-10-01T23:56:36.268Z,1.63
2022-10-01T23:59:12.561Z,1.80
